Farmington, California
Current Conditions -  °F | °C
As of 1:55 AM on Friday 19 Dec 2014 (Local Time) from KSCK Reporting Station
Overcast Overcast  
Wind Chill: 51°   Ceiling: 11000
Heat Index: 51°   Visibility: 7mi
Dew Point: 48°   Wind: 13mph
Humidity: 89%   Direction: 120°ESE
Pressure: 30.16"   Gusts: NA
Location:  37.93°N, 121°W
Report Text: KSCK 190955Z AUTO 12011KT 7SM OVC110 11/09 A3016 RMK AO2 SLP212 T01060089
Loading
Personal Weather Stations






























Interactive Weather Map New forecast layout! Learn more

10-Day Weather Forecast

Advertisements
Track Severe Weather on mobile